sensor_id;sensor_type;location;lat;lon;timestamp;temperature;humidity
72940;DHT22;61094;51.154;13.570;2022-12-07T00:01:20;2.70;99.90
72940;DHT22;61094;51.154;13.570;2022-12-07T00:03:48;2.70;99.90
72940;DHT22;61094;51.154;13.570;2022-12-07T00:06:17;2.70;99.90
72940;DHT22;61094;51.154;13.570;2022-12-07T00:08:44;2.70;99.90
72940;DHT22;61094;51.154;13.570;2022-12-07T00:11:14;2.70;99.90
72940;DHT22;61094;51.154;13.570;2022-12-07T00:13:41;2.70;99.90
72940;DHT22;61094;51.154;13.570;2022-12-07T00:16:09;2.70;99.90
72940;DHT22;61094;51.154;13.570;2022-12-07T00:18:36;2.70;99.90
72940;DHT22;61094;51.154;13.570;2022-12-07T00:21:05;2.70;99.90
72940;DHT22;61094;51.154;13.570;2022-12-07T00:23:32;2.70;99.90
72940;DHT22;61094;51.154;13.570;2022-12-07T00:26:04;2.60;99.90
72940;DHT22;61094;51.154;13.570;2022-12-07T00:28:32;2.70;99.90
72940;DHT22;61094;51.154;13.570;2022-12-07T00:31:01;2.70;99.90
72940;DHT22;61094;51.154;13.570;2022-12-07T00:33:28;2.60;99.90
72940;DHT22;61094;51.154;13.570;2022-12-07T00:35:56;2.70;99.90
72940;DHT22;61094;51.154;13.570;2022-12-07T00:38:23;2.70;99.90
72940;DHT22;61094;51.154;13.570;2022-12-07T00:40:55;2.70;99.90
72940;DHT22;61094;51.154;13.570;2022-12-07T00:43:22;2.70;99.90
72940;DHT22;61094;51.154;13.570;2022-12-07T00:45:50;2.70;99.90
72940;DHT22;61094;51.154;13.570;2022-12-07T00:48:16;2.70;99.90
72940;DHT22;61094;51.154;13.570;2022-12-07T00:50:43;2.70;99.90
72940;DHT22;61094;51.154;13.570;2022-12-07T00:53:10;2.70;99.90
72940;DHT22;61094;51.154;13.570;2022-12-07T00:55:37;2.70;99.90
72940;DHT22;61094;51.154;13.570;2022-12-07T00:58:04;2.70;99.90
72940;DHT22;61094;51.154;13.570;2022-12-07T01:00:32;2.70;99.90
72940;DHT22;61094;51.154;13.570;2022-12-07T01:03:01;2.70;99.90
72940;DHT22;61094;51.154;13.570;2022-12-07T01:05:28;2.70;99.90
72940;DHT22;61094;51.154;13.570;2022-12-07T01:07:54;2.70;99.90
72940;DHT22;61094;51.154;13.570;2022-12-07T01:10:21;2.70;99.90
72940;DHT22;61094;51.154;13.570;2022-12-07T01:12:48;2.70;99.90
72940;DHT22;61094;51.154;13.570;2022-12-07T01:15:15;2.70;99.90
72940;DHT22;61094;51.154;13.570;2022-12-07T01:17:42;2.70;99.90
72940;DHT22;61094;51.154;13.570;2022-12-07T01:20:11;2.70;99.90
72940;DHT22;61094;51.154;13.570;2022-12-07T01:22:39;2.70;99.90
72940;DHT22;61094;51.154;13.570;2022-12-07T01:25:06;2.70;99.90
72940;DHT22;61094;51.154;13.570;2022-12-07T01:27:34;2.70;99.90
72940;DHT22;61094;51.154;13.570;2022-12-07T01:30:01;2.70;99.90
72940;DHT22;61094;51.154;13.570;2022-12-07T01:32:29;2.70;99.90
72940;DHT22;61094;51.154;13.570;2022-12-07T01:34:55;2.70;99.90
72940;DHT22;61094;51.154;13.570;2022-12-07T01:37:23;2.70;99.90
72940;DHT22;61094;51.154;13.570;2022-12-07T01:39:51;2.70;99.90
72940;DHT22;61094;51.154;13.570;2022-12-07T01:42:18;2.70;99.90
72940;DHT22;61094;51.154;13.570;2022-12-07T01:47:51;2.70;99.90
72940;DHT22;61094;51.154;13.570;2022-12-07T01:50:20;2.70;99.90
72940;DHT22;61094;51.154;13.570;2022-12-07T01:52:50;2.70;99.90
72940;DHT22;61094;51.154;13.570;2022-12-07T01:55:18;2.70;99.90
72940;DHT22;61094;51.154;13.570;2022-12-07T01:57:49;2.60;99.90
72940;DHT22;61094;51.154;13.570;2022-12-07T02:00:17;2.60;99.90
72940;DHT22;61094;51.154;13.570;2022-12-07T02:02:48;2.60;99.90
72940;DHT22;61094;51.154;13.570;2022-12-07T02:05:16;2.50;99.90
72940;DHT22;61094;51.154;13.570;2022-12-07T02:07:44;2.50;99.90
72940;DHT22;61094;51.154;13.570;2022-12-07T02:10:16;2.50;99.90
72940;DHT22;61094;51.154;13.570;2022-12-07T02:12:43;2.40;99.90
72940;DHT22;61094;51.154;13.570;2022-12-07T02:15:11;2.30;99.90
72940;DHT22;61094;51.154;13.570;2022-12-07T02:17:45;2.30;99.90
72940;DHT22;61094;51.154;13.570;2022-12-07T02:20:23;2.20;99.90
72940;DHT22;61094;51.154;13.570;2022-12-07T02:23:20;2.20;99.90
72940;DHT22;61094;51.154;13.570;2022-12-07T02:26:21;2.10;99.90
72940;DHT22;61094;51.154;13.570;2022-12-07T02:28:56;2.10;99.90
72940;DHT22;61094;51.154;13.570;2022-12-07T02:31:28;2.10;99.90
72940;DHT22;61094;51.154;13.570;2022-12-07T02:33:57;2.00;99.90
72940;DHT22;61094;51.154;13.570;2022-12-07T02:36:31;2.00;99.90
72940;DHT22;61094;51.154;13.570;2022-12-07T02:39:03;2.00;99.90
72940;DHT22;61094;51.154;13.570;2022-12-07T02:41:36;1.90;99.90
72940;DHT22;61094;51.154;13.570;2022-12-07T02:44:08;2.00;99.90
72940;DHT22;61094;51.154;13.570;2022-12-07T02:46:40;2.00;99.90
72940;DHT22;61094;51.154;13.570;2022-12-07T02:49:07;2.00;99.90
72940;DHT22;61094;51.154;13.570;2022-12-07T02:51:39;2.00;99.90
72940;DHT22;61094;51.154;13.570;2022-12-07T02:54:11;2.00;99.90
72940;DHT22;61094;51.154;13.570;2022-12-07T02:56:43;2.00;99.90
72940;DHT22;61094;51.154;13.570;2022-12-07T02:59:19;2.00;99.90
72940;DHT22;61094;51.154;13.570;2022-12-07T03:01:53;2.00;99.90
72940;DHT22;61094;51.154;13.570;2022-12-07T03:04:30;1.90;99.90
72940;DHT22;61094;51.154;13.570;2022-12-07T03:07:05;1.90;99.90
72940;DHT22;61094;51.154;13.570;2022-12-07T03:09:37;1.90;99.90
72940;DHT22;61094;51.154;13.570;2022-12-07T03:12:10;1.90;99.90
72940;DHT22;61094;51.154;13.570;2022-12-07T03:14:44;1.90;99.90
72940;DHT22;61094;51.154;13.570;2022-12-07T03:17:15;1.80;99.90
72940;DHT22;61094;51.154;13.570;2022-12-07T03:19:44;1.80;99.90
72940;DHT22;61094;51.154;13.570;2022-12-07T03:22:13;1.80;99.90
72940;DHT22;61094;51.154;13.570;2022-12-07T03:24:43;1.80;99.90
72940;DHT22;61094;51.154;13.570;2022-12-07T03:27:16;1.70;99.90
72940;DHT22;61094;51.154;13.570;2022-12-07T03:29:49;1.70;99.90
72940;DHT22;61094;51.154;13.570;2022-12-07T03:32:21;1.70;99.90
72940;DHT22;61094;51.154;13.570;2022-12-07T03:34:54;1.70;99.90
72940;DHT22;61094;51.154;13.570;2022-12-07T03:37:27;1.60;99.90
72940;DHT22;61094;51.154;13.570;2022-12-07T03:40:02;1.60;99.90
72940;DHT22;61094;51.154;13.570;2022-12-07T03:42:31;1.60;99.90
72940;DHT22;61094;51.154;13.570;2022-12-07T03:45:02;1.60;99.90
72940;DHT22;61094;51.154;13.570;2022-12-07T03:47:33;1.60;99.90
72940;DHT22;61094;51.154;13.570;2022-12-07T03:50:04;1.60;99.90
72940;DHT22;61094;51.154;13.570;2022-12-07T03:52:38;1.60;99.90
72940;DHT22;61094;51.154;13.570;2022-12-07T03:55:08;1.60;99.90
72940;DHT22;61094;51.154;13.570;2022-12-07T03:57:37;1.60;99.90
72940;DHT22;61094;51.154;13.570;2022-12-07T04:00:09;1.60;99.90
72940;DHT22;61094;51.154;13.570;2022-12-07T04:02:36;1.60;99.90
72940;DHT22;61094;51.154;13.570;2022-12-07T04:05:03;1.60;99.90
72940;DHT22;61094;51.154;13.570;2022-12-07T04:07:31;1.60;99.90
72940;DHT22;61094;51.154;13.570;2022-12-07T04:09:57;1.60;99.90
72940;DHT22;61094;51.154;13.570;2022-12-07T04:12:24;1.60;99.90
72940;DHT22;61094;51.154;13.570;2022-12-07T04:14:51;1.60;99.90
72940;DHT22;61094;51.154;13.570;2022-12-07T04:17:19;1.60;99.90
72940;DHT22;61094;51.154;13.570;2022-12-07T04:19:46;1.60;99.90
72940;DHT22;61094;51.154;13.570;2022-12-07T04:22:12;1.60;99.90
72940;DHT22;61094;51.154;13.570;2022-12-07T04:24:39;1.60;99.90
72940;DHT22;61094;51.154;13.570;2022-12-07T04:27:06;1.50;99.90
72940;DHT22;61094;51.154;13.570;2022-12-07T04:29:32;1.50;99.90
72940;DHT22;61094;51.154;13.570;2022-12-07T04:31:59;1.50;99.90
72940;DHT22;61094;51.154;13.570;2022-12-07T04:34:27;1.50;99.90
72940;DHT22;61094;51.154;13.570;2022-12-07T04:36:54;1.40;99.90
72940;DHT22;61094;51.154;13.570;2022-12-07T04:39:22;1.40;99.90
72940;DHT22;61094;51.154;13.570;2022-12-07T04:41:50;1.40;99.90
72940;DHT22;61094;51.154;13.570;2022-12-07T04:44:17;1.40;99.90
72940;DHT22;61094;51.154;13.570;2022-12-07T04:46:44;1.30;99.90
72940;DHT22;61094;51.154;13.570;2022-12-07T04:49:12;1.30;99.90
72940;DHT22;61094;51.154;13.570;2022-12-07T04:51:41;1.30;99.90
72940;DHT22;61094;51.154;13.570;2022-12-07T04:54:08;1.30;99.90
72940;DHT22;61094;51.154;13.570;2022-12-07T04:56:35;1.30;99.90
72940;DHT22;61094;51.154;13.570;2022-12-07T04:59:02;1.30;99.90
72940;DHT22;61094;51.154;13.570;2022-12-07T05:01:29;1.30;99.90
72940;DHT22;61094;51.154;13.570;2022-12-07T05:03:56;1.40;99.90
72940;DHT22;61094;51.154;13.570;2022-12-07T05:06:23;1.40;99.90
72940;DHT22;61094;51.154;13.570;2022-12-07T05:08:51;1.40;99.90
72940;DHT22;61094;51.154;13.570;2022-12-07T05:11:18;1.40;99.90
72940;DHT22;61094;51.154;13.570;2022-12-07T05:13:59;1.40;99.90
72940;DHT22;61094;51.154;13.570;2022-12-07T05:16:26;1.50;99.90
72940;DHT22;61094;51.154;13.570;2022-12-07T05:18:53;1.50;99.90
72940;DHT22;61094;51.154;13.570;2022-12-07T05:21:20;1.60;99.90
72940;DHT22;61094;51.154;13.570;2022-12-07T05:23:46;1.60;99.90
72940;DHT22;61094;51.154;13.570;2022-12-07T05:26:15;1.60;99.90
72940;DHT22;61094;51.154;13.570;2022-12-07T05:28:41;1.70;99.90
72940;DHT22;61094;51.154;13.570;2022-12-07T05:31:08;1.70;99.90
72940;DHT22;61094;51.154;13.570;2022-12-07T05:33:35;1.80;99.90
72940;DHT22;61094;51.154;13.570;2022-12-07T05:36:02;1.80;99.90
72940;DHT22;61094;51.154;13.570;2022-12-07T05:38:31;1.80;99.90
72940;DHT22;61094;51.154;13.570;2022-12-07T05:41:00;1.80;99.90
72940;DHT22;61094;51.154;13.570;2022-12-07T05:43:29;1.90;99.90
72940;DHT22;61094;51.154;13.570;2022-12-07T05:45:55;1.90;99.90
72940;DHT22;61094;51.154;13.570;2022-12-07T05:48:22;1.90;99.90
72940;DHT22;61094;51.154;13.570;2022-12-07T05:50:49;1.90;99.90
72940;DHT22;61094;51.154;13.570;2022-12-07T05:53:16;2.00;99.90
72940;DHT22;61094;51.154;13.570;2022-12-07T05:55:43;2.00;99.90
72940;DHT22;61094;51.154;13.570;2022-12-07T05:58:10;2.00;99.90
72940;DHT22;61094;51.154;13.570;2022-12-07T06:00:56;2.00;99.90
72940;DHT22;61094;51.154;13.570;2022-12-07T06:03:23;2.10;99.90
72940;DHT22;61094;51.154;13.570;2022-12-07T06:05:49;2.10;99.90
72940;DHT22;61094;51.154;13.570;2022-12-07T06:08:18;2.10;99.90
72940;DHT22;61094;51.154;13.570;2022-12-07T06:10:47;2.20;99.90
72940;DHT22;61094;51.154;13.570;2022-12-07T06:13:34;2.20;99.90
72940;DHT22;61094;51.154;13.570;2022-12-07T06:16:01;2.20;99.90
72940;DHT22;61094;51.154;13.570;2022-12-07T06:18:27;2.20;99.90
72940;DHT22;61094;51.154;13.570;2022-12-07T06:20:54;2.10;99.90
72940;DHT22;61094;51.154;13.570;2022-12-07T06:23:21;2.10;99.90
72940;DHT22;61094;51.154;13.570;2022-12-07T06:25:47;2.10;99.90
72940;DHT22;61094;51.154;13.570;2022-12-07T06:28:14;2.20;99.90
72940;DHT22;61094;51.154;13.570;2022-12-07T06:30:41;2.10;99.90
72940;DHT22;61094;51.154;13.570;2022-12-07T06:33:09;2.20;99.90
72940;DHT22;61094;51.154;13.570;2022-12-07T06:35:36;2.20;99.90
72940;DHT22;61094;51.154;13.570;2022-12-07T06:38:02;2.30;99.90
72940;DHT22;61094;51.154;13.570;2022-12-07T06:40:29;2.30;99.90
72940;DHT22;61094;51.154;13.570;2022-12-07T06:42:56;2.30;99.90
72940;DHT22;61094;51.154;13.570;2022-12-07T06:45:22;2.30;99.90
72940;DHT22;61094;51.154;13.570;2022-12-07T06:47:49;2.40;99.90
72940;DHT22;61094;51.154;13.570;2022-12-07T06:50:17;2.40;99.90
72940;DHT22;61094;51.154;13.570;2022-12-07T06:52:44;2.40;99.90
72940;DHT22;61094;51.154;13.570;2022-12-07T06:55:11;2.40;99.90
72940;DHT22;61094;51.154;13.570;2022-12-07T06:57:37;2.40;99.90
72940;DHT22;61094;51.154;13.570;2022-12-07T07:00:05;2.40;99.90
72940;DHT22;61094;51.154;13.570;2022-12-07T07:02:32;2.40;99.90
72940;DHT22;61094;51.154;13.570;2022-12-07T07:04:59;2.40;99.90
72940;DHT22;61094;51.154;13.570;2022-12-07T07:07:27;2.40;99.90
72940;DHT22;61094;51.154;13.570;2022-12-07T07:09:54;2.40;99.90
72940;DHT22;61094;51.154;13.570;2022-12-07T07:12:20;2.30;99.90
72940;DHT22;61094;51.154;13.570;2022-12-07T07:14:47;2.30;99.90
72940;DHT22;61094;51.154;13.570;2022-12-07T07:17:14;2.30;99.90
72940;DHT22;61094;51.154;13.570;2022-12-07T07:19:41;2.30;99.90
72940;DHT22;61094;51.154;13.570;2022-12-07T07:22:07;2.30;99.90
72940;DHT22;61094;51.154;13.570;2022-12-07T07:24:35;2.20;99.90
72940;DHT22;61094;51.154;13.570;2022-12-07T07:27:02;2.20;99.90
72940;DHT22;61094;51.154;13.570;2022-12-07T07:29:29;2.20;99.90
72940;DHT22;61094;51.154;13.570;2022-12-07T07:31:56;2.20;99.90
72940;DHT22;61094;51.154;13.570;2022-12-07T07:34:22;2.20;99.90
72940;DHT22;61094;51.154;13.570;2022-12-07T07:36:49;2.30;99.90
72940;DHT22;61094;51.154;13.570;2022-12-07T07:39:16;2.30;99.90
72940;DHT22;61094;51.154;13.570;2022-12-07T07:41:44;2.30;99.90
72940;DHT22;61094;51.154;13.570;2022-12-07T07:44:11;2.30;99.90
72940;DHT22;61094;51.154;13.570;2022-12-07T07:46:37;2.30;99.90
72940;DHT22;61094;51.154;13.570;2022-12-07T07:49:04;2.30;99.90
72940;DHT22;61094;51.154;13.570;2022-12-07T07:51:31;2.30;99.90
72940;DHT22;61094;51.154;13.570;2022-12-07T07:53:58;2.40;99.90
72940;DHT22;61094;51.154;13.570;2022-12-07T07:56:24;2.40;99.90
72940;DHT22;61094;51.154;13.570;2022-12-07T07:58:53;2.50;99.90
72940;DHT22;61094;51.154;13.570;2022-12-07T08:01:20;2.50;99.90
72940;DHT22;61094;51.154;13.570;2022-12-07T08:03:47;2.60;99.90
72940;DHT22;61094;51.154;13.570;2022-12-07T08:06:14;2.60;99.90
72940;DHT22;61094;51.154;13.570;2022-12-07T08:08:41;2.70;99.90
72940;DHT22;61094;51.154;13.570;2022-12-07T08:11:09;2.70;99.90
72940;DHT22;61094;51.154;13.570;2022-12-07T08:13:36;2.80;99.90
72940;DHT22;61094;51.154;13.570;2022-12-07T08:16:06;2.80;99.90
72940;DHT22;61094;51.154;13.570;2022-12-07T08:18:35;2.90;99.90
72940;DHT22;61094;51.154;13.570;2022-12-07T08:21:03;2.90;99.90
72940;DHT22;61094;51.154;13.570;2022-12-07T08:23:30;2.90;99.90
72940;DHT22;61094;51.154;13.570;2022-12-07T08:26:00;3.00;99.90
72940;DHT22;61094;51.154;13.570;2022-12-07T08:28:27;3.10;99.90
72940;DHT22;61094;51.154;13.570;2022-12-07T08:30:58;3.10;99.90
72940;DHT22;61094;51.154;13.570;2022-12-07T08:33:27;3.20;99.90
72940;DHT22;61094;51.154;13.570;2022-12-07T08:35:53;3.20;99.90
72940;DHT22;61094;51.154;13.570;2022-12-07T08:38:20;3.30;99.90
72940;DHT22;61094;51.154;13.570;2022-12-07T08:40:53;3.30;99.90
72940;DHT22;61094;51.154;13.570;2022-12-07T08:43:20;3.30;99.90
72940;DHT22;61094;51.154;13.570;2022-12-07T08:45:48;3.40;99.90
72940;DHT22;61094;51.154;13.570;2022-12-07T08:48:16;3.40;99.90
72940;DHT22;61094;51.154;13.570;2022-12-07T08:50:48;3.50;99.90
72940;DHT22;61094;51.154;13.570;2022-12-07T08:53:15;3.50;99.90
72940;DHT22;61094;51.154;13.570;2022-12-07T08:55:43;3.50;99.90
72940;DHT22;61094;51.154;13.570;2022-12-07T08:58:10;3.60;99.90
72940;DHT22;61094;51.154;13.570;2022-12-07T09:00:37;3.60;99.90
72940;DHT22;61094;51.154;13.570;2022-12-07T09:03:04;3.60;99.90
72940;DHT22;61094;51.154;13.570;2022-12-07T09:05:32;3.70;99.90
72940;DHT22;61094;51.154;13.570;2022-12-07T09:08:01;3.80;99.90
72940;DHT22;61094;51.154;13.570;2022-12-07T09:10:29;4.10;99.90
72940;DHT22;61094;51.154;13.570;2022-12-07T09:12:56;4.20;99.90
72940;DHT22;61094;51.154;13.570;2022-12-07T09:15:26;4.30;99.90
72940;DHT22;61094;51.154;13.570;2022-12-07T09:17:53;4.40;99.90
72940;DHT22;61094;51.154;13.570;2022-12-07T09:20:19;4.40;99.90
72940;DHT22;61094;51.154;13.570;2022-12-07T09:22:46;4.50;99.90
72940;DHT22;61094;51.154;13.570;2022-12-07T09:25:14;4.60;99.90
72940;DHT22;61094;51.154;13.570;2022-12-07T09:27:41;4.60;99.90
72940;DHT22;61094;51.154;13.570;2022-12-07T09:30:08;4.60;99.90
72940;DHT22;61094;51.154;13.570;2022-12-07T09:32:35;4.60;99.90
72940;DHT22;61094;51.154;13.570;2022-12-07T09:35:02;4.60;99.90
72940;DHT22;61094;51.154;13.570;2022-12-07T09:37:29;4.60;99.90
72940;DHT22;61094;51.154;13.570;2022-12-07T09:39:57;4.60;99.90
72940;DHT22;61094;51.154;13.570;2022-12-07T09:42:30;4.70;99.90
72940;DHT22;61094;51.154;13.570;2022-12-07T09:44:58;4.80;99.90
72940;DHT22;61094;51.154;13.570;2022-12-07T09:47:25;4.90;99.90
72940;DHT22;61094;51.154;13.570;2022-12-07T09:49:54;5.00;99.90
72940;DHT22;61094;51.154;13.570;2022-12-07T09:52:26;5.10;99.90
72940;DHT22;61094;51.154;13.570;2022-12-07T09:54:53;5.30;99.90
72940;DHT22;61094;51.154;13.570;2022-12-07T09:57:25;5.50;99.90
72940;DHT22;61094;51.154;13.570;2022-12-07T09:59:56;5.70;99.90
72940;DHT22;61094;51.154;13.570;2022-12-07T10:02:28;5.90;99.90
72940;DHT22;61094;51.154;13.570;2022-12-07T10:04:59;6.00;99.90
72940;DHT22;61094;51.154;13.570;2022-12-07T10:07:26;6.20;99.90
72940;DHT22;61094;51.154;13.570;2022-12-07T10:09:53;6.40;99.90
72940;DHT22;61094;51.154;13.570;2022-12-07T10:12:19;6.60;99.90
72940;DHT22;61094;51.154;13.570;2022-12-07T10:14:55;6.90;99.90
72940;DHT22;61094;51.154;13.570;2022-12-07T10:17:30;7.00;99.90
72940;DHT22;61094;51.154;13.570;2022-12-07T10:20:12;7.00;99.90
72940;DHT22;61094;51.154;13.570;2022-12-07T10:22:55;6.90;99.90
72940;DHT22;61094;51.154;13.570;2022-12-07T10:25:25;6.80;99.90
72940;DHT22;61094;51.154;13.570;2022-12-07T10:28:01;6.60;99.90
72940;DHT22;61094;51.154;13.570;2022-12-07T10:30:30;6.40;99.90
72940;DHT22;61094;51.154;13.570;2022-12-07T10:32:58;6.30;99.90
72940;DHT22;61094;51.154;13.570;2022-12-07T10:35:26;6.10;99.90
72940;DHT22;61094;51.154;13.570;2022-12-07T10:37:54;5.90;99.90
72940;DHT22;61094;51.154;13.570;2022-12-07T10:40:31;5.80;99.90
72940;DHT22;61094;51.154;13.570;2022-12-07T10:43:03;5.60;99.90
72940;DHT22;61094;51.154;13.570;2022-12-07T10:45:32;5.50;99.90
72940;DHT22;61094;51.154;13.570;2022-12-07T10:48:05;5.40;99.90
72940;DHT22;61094;51.154;13.570;2022-12-07T10:50:57;5.30;99.90
72940;DHT22;61094;51.154;13.570;2022-12-07T10:53:36;5.30;99.90
72940;DHT22;61094;51.154;13.570;2022-12-07T10:59:06;5.10;99.90
72940;DHT22;61094;51.154;13.570;2022-12-07T11:01:43;5.10;99.90
72940;DHT22;61094;51.154;13.570;2022-12-07T11:04:24;5.10;99.90
72940;DHT22;61094;51.154;13.570;2022-12-07T11:07:00;5.10;99.90
72940;DHT22;61094;51.154;13.570;2022-12-07T11:12:40;5.20;99.90
72940;DHT22;61094;51.154;13.570;2022-12-07T11:15:15;5.30;99.90
72940;DHT22;61094;51.154;13.570;2022-12-07T11:17:50;5.20;99.90
72940;DHT22;61094;51.154;13.570;2022-12-07T11:20:37;5.20;99.90
72940;DHT22;61094;51.154;13.570;2022-12-07T11:23:18;5.20;99.90
72940;DHT22;61094;51.154;13.570;2022-12-07T11:25:53;5.10;99.90
72940;DHT22;61094;51.154;13.570;2022-12-07T11:28:37;5.10;99.90
72940;DHT22;61094;51.154;13.570;2022-12-07T11:31:13;4.90;99.90
72940;DHT22;61094;51.154;13.570;2022-12-07T11:33:46;4.80;99.90
72940;DHT22;61094;51.154;13.570;2022-12-07T11:36:31;4.60;99.90
72940;DHT22;61094;51.154;13.570;2022-12-07T11:39:02;4.50;99.90
72940;DHT22;61094;51.154;13.570;2022-12-07T11:41:37;4.30;99.90
72940;DHT22;61094;51.154;13.570;2022-12-07T11:44:06;4.20;99.90
72940;DHT22;61094;51.154;13.570;2022-12-07T11:46:45;4.10;99.90
72940;DHT22;61094;51.154;13.570;2022-12-07T11:49:21;4.00;99.90
72940;DHT22;61094;51.154;13.570;2022-12-07T11:51:53;4.00;99.90
72940;DHT22;61094;51.154;13.570;2022-12-07T11:54:25;3.90;99.90
72940;DHT22;61094;51.154;13.570;2022-12-07T11:56:54;3.90;99.90
72940;DHT22;61094;51.154;13.570;2022-12-07T11:59:27;3.90;99.90
72940;DHT22;61094;51.154;13.570;2022-12-07T12:02:03;3.90;99.90
72940;DHT22;61094;51.154;13.570;2022-12-07T12:04:51;3.90;99.90
72940;DHT22;61094;51.154;13.570;2022-12-07T12:07:22;3.90;99.90
72940;DHT22;61094;51.154;13.570;2022-12-07T12:09:53;3.90;99.90
72940;DHT22;61094;51.154;13.570;2022-12-07T12:12:48;3.90;99.90
72940;DHT22;61094;51.154;13.570;2022-12-07T12:15:29;3.90;99.90
72940;DHT22;61094;51.154;13.570;2022-12-07T12:18:18;4.00;99.90
72940;DHT22;61094;51.154;13.570;2022-12-07T12:20:51;4.10;99.90
72940;DHT22;61094;51.154;13.570;2022-12-07T12:23:23;4.20;99.90
72940;DHT22;61094;51.154;13.570;2022-12-07T12:25:53;4.20;99.90
72940;DHT22;61094;51.154;13.570;2022-12-07T12:28:24;4.40;99.90
72940;DHT22;61094;51.154;13.570;2022-12-07T12:31:09;4.40;99.90
72940;DHT22;61094;51.154;13.570;2022-12-07T12:33:37;4.50;99.90
72940;DHT22;61094;51.154;13.570;2022-12-07T12:36:21;4.50;99.90
72940;DHT22;61094;51.154;13.570;2022-12-07T12:38:50;4.60;99.90
72940;DHT22;61094;51.154;13.570;2022-12-07T12:44:41;4.70;99.90
72940;DHT22;61094;51.154;13.570;2022-12-07T12:47:40;4.60;99.90
72940;DHT22;61094;51.154;13.570;2022-12-07T12:50:21;4.60;99.90
72940;DHT22;61094;51.154;13.570;2022-12-07T12:53:22;4.60;99.90
72940;DHT22;61094;51.154;13.570;2022-12-07T12:56:26;4.60;99.90
72940;DHT22;61094;51.154;13.570;2022-12-07T12:59:24;4.50;99.90
72940;DHT22;61094;51.154;13.570;2022-12-07T13:01:52;4.40;99.90
72940;DHT22;61094;51.154;13.570;2022-12-07T13:10:43;3.90;99.90
72940;DHT22;61094;51.154;13.570;2022-12-07T13:13:38;3.70;99.90
72940;DHT22;61094;51.154;13.570;2022-12-07T13:16:37;3.50;99.90
72940;DHT22;61094;51.154;13.570;2022-12-07T13:22:44;3.20;99.90
72940;DHT22;61094;51.154;13.570;2022-12-07T13:25:21;3.10;99.90
72940;DHT22;61094;51.154;13.570;2022-12-07T13:27:56;3.00;99.90
72940;DHT22;61094;51.154;13.570;2022-12-07T13:30:24;3.00;99.90
72940;DHT22;61094;51.154;13.570;2022-12-07T13:32:55;3.00;99.90
72940;DHT22;61094;51.154;13.570;2022-12-07T13:35:30;3.00;99.90
72940;DHT22;61094;51.154;13.570;2022-12-07T13:37:57;3.10;99.90
72940;DHT22;61094;51.154;13.570;2022-12-07T13:40:24;3.10;99.90
72940;DHT22;61094;51.154;13.570;2022-12-07T13:42:59;3.10;99.90
72940;DHT22;61094;51.154;13.570;2022-12-07T13:45:27;3.20;99.90
72940;DHT22;61094;51.154;13.570;2022-12-07T13:48:14;3.20;99.90
72940;DHT22;61094;51.154;13.570;2022-12-07T13:50:42;3.20;99.90
72940;DHT22;61094;51.154;13.570;2022-12-07T13:53:12;3.30;99.90
72940;DHT22;61094;51.154;13.570;2022-12-07T13:55:45;3.40;99.90
72940;DHT22;61094;51.154;13.570;2022-12-07T13:58:14;3.40;99.90
72940;DHT22;61094;51.154;13.570;2022-12-07T14:00:41;3.40;99.90
72940;DHT22;61094;51.154;13.570;2022-12-07T14:03:25;3.50;99.90
72940;DHT22;61094;51.154;13.570;2022-12-07T14:06:10;3.60;99.90
72940;DHT22;61094;51.154;13.570;2022-12-07T14:08:38;3.60;99.90
72940;DHT22;61094;51.154;13.570;2022-12-07T14:11:04;3.60;99.90
72940;DHT22;61094;51.154;13.570;2022-12-07T14:13:36;3.70;99.90
72940;DHT22;61094;51.154;13.570;2022-12-07T14:16:18;3.70;99.90
72940;DHT22;61094;51.154;13.570;2022-12-07T14:18:45;3.70;99.90
72940;DHT22;61094;51.154;13.570;2022-12-07T14:21:15;3.70;99.90
72940;DHT22;61094;51.154;13.570;2022-12-07T14:23:42;3.70;99.90
72940;DHT22;61094;51.154;13.570;2022-12-07T14:26:11;3.70;99.90
72940;DHT22;61094;51.154;13.570;2022-12-07T14:28:41;3.70;99.90
72940;DHT22;61094;51.154;13.570;2022-12-07T14:31:11;3.80;99.90
72940;DHT22;61094;51.154;13.570;2022-12-07T14:33:39;3.80;99.90
72940;DHT22;61094;51.154;13.570;2022-12-07T14:36:07;3.80;99.90
72940;DHT22;61094;51.154;13.570;2022-12-07T14:38:35;3.70;99.90
72940;DHT22;61094;51.154;13.570;2022-12-07T14:41:01;3.80;99.90
72940;DHT22;61094;51.154;13.570;2022-12-07T14:43:43;3.80;99.90
72940;DHT22;61094;51.154;13.570;2022-12-07T14:46:10;3.80;99.90
72940;DHT22;61094;51.154;13.570;2022-12-07T14:48:37;3.80;99.90
72940;DHT22;61094;51.154;13.570;2022-12-07T14:51:04;3.80;99.90
72940;DHT22;61094;51.154;13.570;2022-12-07T14:53:36;3.80;99.90
72940;DHT22;61094;51.154;13.570;2022-12-07T14:56:05;3.80;99.90
72940;DHT22;61094;51.154;13.570;2022-12-07T14:58:32;3.80;99.90
72940;DHT22;61094;51.154;13.570;2022-12-07T15:01:00;3.80;99.90
72940;DHT22;61094;51.154;13.570;2022-12-07T15:03:27;3.80;99.90
72940;DHT22;61094;51.154;13.570;2022-12-07T15:05:54;3.80;99.90
72940;DHT22;61094;51.154;13.570;2022-12-07T15:08:21;3.80;99.90
72940;DHT22;61094;51.154;13.570;2022-12-07T15:10:48;3.80;99.90
72940;DHT22;61094;51.154;13.570;2022-12-07T15:13:15;3.80;99.90
72940;DHT22;61094;51.154;13.570;2022-12-07T15:16:00;3.70;99.90
72940;DHT22;61094;51.154;13.570;2022-12-07T15:18:27;3.70;99.90
72940;DHT22;61094;51.154;13.570;2022-12-07T15:20:54;3.60;99.90
72940;DHT22;61094;51.154;13.570;2022-12-07T15:23:20;3.50;99.90
72940;DHT22;61094;51.154;13.570;2022-12-07T15:25:48;3.40;99.90
72940;DHT22;61094;51.154;13.570;2022-12-07T15:28:15;3.40;99.90
72940;DHT22;61094;51.154;13.570;2022-12-07T15:30:43;3.30;99.90
72940;DHT22;61094;51.154;13.570;2022-12-07T15:33:12;3.30;99.90
72940;DHT22;61094;51.154;13.570;2022-12-07T15:35:39;3.20;99.90
72940;DHT22;61094;51.154;13.570;2022-12-07T15:38:06;3.20;99.90
72940;DHT22;61094;51.154;13.570;2022-12-07T15:40:33;3.20;99.90
72940;DHT22;61094;51.154;13.570;2022-12-07T15:43:00;3.10;99.90
72940;DHT22;61094;51.154;13.570;2022-12-07T15:45:27;3.10;99.90
72940;DHT22;61094;51.154;13.570;2022-12-07T15:47:53;3.10;99.90
72940;DHT22;61094;51.154;13.570;2022-12-07T15:50:22;3.10;99.90
72940;DHT22;61094;51.154;13.570;2022-12-07T15:52:49;3.00;99.90
72940;DHT22;61094;51.154;13.570;2022-12-07T15:55:15;3.00;99.90
72940;DHT22;61094;51.154;13.570;2022-12-07T15:57:42;3.00;99.90
72940;DHT22;61094;51.154;13.570;2022-12-07T16:00:10;3.00;99.90
72940;DHT22;61094;51.154;13.570;2022-12-07T16:02:37;3.00;99.90
72940;DHT22;61094;51.154;13.570;2022-12-07T16:05:04;3.00;99.90
72940;DHT22;61094;51.154;13.570;2022-12-07T16:07:32;3.00;99.90
72940;DHT22;61094;51.154;13.570;2022-12-07T16:09:59;3.00;99.90
72940;DHT22;61094;51.154;13.570;2022-12-07T16:12:26;3.00;99.90